sensor_id;sensor_type;location;lat;lon;timestamp;P1;durP1;ratioP1;P2;durP2;ratioP2
64297;SDS011;50639;53.270;7.956;2022-11-12T00:02:03;10.82;;;5.53;;
64297;SDS011;50639;53.270;7.956;2022-11-12T00:04:47;9.32;;;5.30;;
64297;SDS011;50639;53.270;7.956;2022-11-12T00:07:31;10.48;;;5.38;;
64297;SDS011;50639;53.270;7.956;2022-11-12T00:10:15;9.63;;;5.43;;
64297;SDS011;50639;53.270;7.956;2022-11-12T00:12:59;10.68;;;7.03;;
64297;SDS011;50639;53.270;7.956;2022-11-12T00:15:44;10.43;;;5.65;;
64297;SDS011;50639;53.270;7.956;2022-11-12T00:18:29;9.18;;;5.88;;
64297;SDS011;50639;53.270;7.956;2022-11-12T00:21:13;12.52;;;7.00;;
64297;SDS011;50639;53.270;7.956;2022-11-12T00:23:57;12.57;;;6.57;;
64297;SDS011;50639;53.270;7.956;2022-11-12T00:26:41;11.00;;;6.00;;
64297;SDS011;50639;53.270;7.956;2022-11-12T00:29:25;9.75;;;5.80;;
64297;SDS011;50639;53.270;7.956;2022-11-12T00:32:09;9.05;;;5.45;;
64297;SDS011;50639;53.270;7.956;2022-11-12T00:34:53;11.73;;;6.80;;
64297;SDS011;50639;53.270;7.956;2022-11-12T00:37:38;10.77;;;6.38;;
64297;SDS011;50639;53.270;7.956;2022-11-12T00:40:22;8.80;;;5.38;;
64297;SDS011;50639;53.270;7.956;2022-11-12T00:43:06;16.73;;;8.38;;
64297;SDS011;50639;53.270;7.956;2022-11-12T00:45:49;10.00;;;6.28;;
64297;SDS011;50639;53.270;7.956;2022-11-12T00:48:33;11.43;;;5.88;;
64297;SDS011;50639;53.270;7.956;2022-11-12T00:51:17;10.88;;;6.60;;
64297;SDS011;50639;53.270;7.956;2022-11-12T00:54:01;10.68;;;6.38;;
64297;SDS011;50639;53.270;7.956;2022-11-12T00:56:46;12.32;;;6.25;;
64297;SDS011;50639;53.270;7.956;2022-11-12T00:59:30;10.90;;;6.57;;
64297;SDS011;50639;53.270;7.956;2022-11-12T01:02:14;12.70;;;6.80;;
64297;SDS011;50639;53.270;7.956;2022-11-12T01:04:58;12.10;;;6.43;;
64297;SDS011;50639;53.270;7.956;2022-11-12T01:07:42;14.27;;;5.53;;
64297;SDS011;50639;53.270;7.956;2022-11-12T01:10:26;9.70;;;5.45;;
64297;SDS011;50639;53.270;7.956;2022-11-12T01:13:10;10.90;;;5.65;;
64297;SDS011;50639;53.270;7.956;2022-11-12T01:15:54;10.05;;;5.97;;
64297;SDS011;50639;53.270;7.956;2022-11-12T01:18:39;14.07;;;6.13;;
64297;SDS011;50639;53.270;7.956;2022-11-12T01:21:24;10.95;;;6.43;;
64297;SDS011;50639;53.270;7.956;2022-11-12T01:24:09;9.73;;;6.07;;
64297;SDS011;50639;53.270;7.956;2022-11-12T01:26:53;11.13;;;6.13;;
64297;SDS011;50639;53.270;7.956;2022-11-12T01:29:37;11.13;;;5.60;;
64297;SDS011;50639;53.270;7.956;2022-11-12T01:32:21;9.68;;;5.47;;
64297;SDS011;50639;53.270;7.956;2022-11-12T01:35:05;9.60;;;5.55;;
64297;SDS011;50639;53.270;7.956;2022-11-12T01:37:49;11.15;;;6.00;;
64297;SDS011;50639;53.270;7.956;2022-11-12T01:40:33;8.45;;;5.82;;
64297;SDS011;50639;53.270;7.956;2022-11-12T01:43:17;9.40;;;5.65;;
64297;SDS011;50639;53.270;7.956;2022-11-12T01:46:02;11.75;;;6.28;;
64297;SDS011;50639;53.270;7.956;2022-11-12T01:48:48;18.90;;;6.38;;
64297;SDS011;50639;53.270;7.956;2022-11-12T01:51:34;10.18;;;5.80;;
64297;SDS011;50639;53.270;7.956;2022-11-12T01:54:22;8.38;;;5.05;;
64297;SDS011;50639;53.270;7.956;2022-11-12T01:57:07;16.67;;;7.38;;
64297;SDS011;50639;53.270;7.956;2022-11-12T01:59:53;9.40;;;6.20;;
64297;SDS011;50639;53.270;7.956;2022-11-12T02:02:39;9.97;;;5.73;;
64297;SDS011;50639;53.270;7.956;2022-11-12T02:05:23;10.65;;;6.28;;
64297;SDS011;50639;53.270;7.956;2022-11-12T02:08:08;11.30;;;6.30;;
64297;SDS011;50639;53.270;7.956;2022-11-12T02:10:53;9.85;;;5.88;;
64297;SDS011;50639;53.270;7.956;2022-11-12T02:13:38;11.30;;;6.78;;
64297;SDS011;50639;53.270;7.956;2022-11-12T02:16:42;11.38;;;6.55;;
64297;SDS011;50639;53.270;7.956;2022-11-12T02:19:26;11.20;;;5.78;;
64297;SDS011;50639;53.270;7.956;2022-11-12T02:22:10;10.30;;;7.10;;
64297;SDS011;50639;53.270;7.956;2022-11-12T02:24:54;11.25;;;6.90;;
64297;SDS011;50639;53.270;7.956;2022-11-12T02:27:38;12.57;;;6.10;;
64297;SDS011;50639;53.270;7.956;2022-11-12T02:30:30;12.32;;;6.00;;
64297;SDS011;50639;53.270;7.956;2022-11-12T02:33:14;10.27;;;6.00;;
64297;SDS011;50639;53.270;7.956;2022-11-12T02:35:59;10.25;;;5.53;;
64297;SDS011;50639;53.270;7.956;2022-11-12T02:38:43;12.30;;;6.18;;
64297;SDS011;50639;53.270;7.956;2022-11-12T02:41:27;11.75;;;5.82;;
64297;SDS011;50639;53.270;7.956;2022-11-12T02:44:11;9.25;;;5.80;;
64297;SDS011;50639;53.270;7.956;2022-11-12T02:46:56;11.45;;;6.32;;
64297;SDS011;50639;53.270;7.956;2022-11-12T02:49:40;11.45;;;5.85;;
64297;SDS011;50639;53.270;7.956;2022-11-12T02:52:24;7.97;;;4.95;;
64297;SDS011;50639;53.270;7.956;2022-11-12T02:55:09;9.88;;;5.80;;
64297;SDS011;50639;53.270;7.956;2022-11-12T02:57:56;10.75;;;6.43;;
64297;SDS011;50639;53.270;7.956;2022-11-12T03:00:39;10.77;;;5.80;;
64297;SDS011;50639;53.270;7.956;2022-11-12T03:03:24;10.40;;;5.85;;
64297;SDS011;50639;53.270;7.956;2022-11-12T03:06:08;10.25;;;6.32;;
64297;SDS011;50639;53.270;7.956;2022-11-12T03:08:52;11.98;;;6.00;;
64297;SDS011;50639;53.270;7.956;2022-11-12T03:11:36;9.80;;;5.70;;
64297;SDS011;50639;53.270;7.956;2022-11-12T03:14:20;8.70;;;5.38;;
64297;SDS011;50639;53.270;7.956;2022-11-12T03:17:04;9.80;;;5.15;;
64297;SDS011;50639;53.270;7.956;2022-11-12T03:19:48;13.52;;;5.90;;
64297;SDS011;50639;53.270;7.956;2022-11-12T03:22:32;9.40;;;5.35;;
64297;SDS011;50639;53.270;7.956;2022-11-12T03:25:16;8.18;;;4.75;;
64297;SDS011;50639;53.270;7.956;2022-11-12T03:30:47;11.23;;;5.20;;
64297;SDS011;50639;53.270;7.956;2022-11-12T03:33:31;9.57;;;5.47;;
64297;SDS011;50639;53.270;7.956;2022-11-12T03:36:15;10.45;;;5.05;;
64297;SDS011;50639;53.270;7.956;2022-11-12T03:38:59;9.57;;;5.70;;
64297;SDS011;50639;53.270;7.956;2022-11-12T03:41:43;10.88;;;6.10;;
64297;SDS011;50639;53.270;7.956;2022-11-12T03:44:27;7.40;;;4.97;;
64297;SDS011;50639;53.270;7.956;2022-11-12T03:47:11;10.38;;;5.97;;
64297;SDS011;50639;53.270;7.956;2022-11-12T03:49:55;12.27;;;6.13;;
64297;SDS011;50639;53.270;7.956;2022-11-12T03:52:43;13.75;;;6.82;;
64297;SDS011;50639;53.270;7.956;2022-11-12T03:55:28;10.32;;;5.82;;
64297;SDS011;50639;53.270;7.956;2022-11-12T03:58:13;8.68;;;5.20;;
64297;SDS011;50639;53.270;7.956;2022-11-12T04:00:57;9.63;;;5.70;;
64297;SDS011;50639;53.270;7.956;2022-11-12T04:03:41;12.93;;;6.15;;
64297;SDS011;50639;53.270;7.956;2022-11-12T04:06:25;10.98;;;5.68;;
64297;SDS011;50639;53.270;7.956;2022-11-12T04:09:28;10.57;;;5.85;;
64297;SDS011;50639;53.270;7.956;2022-11-12T04:12:12;9.77;;;5.70;;
64297;SDS011;50639;53.270;7.956;2022-11-12T04:15:15;10.27;;;5.00;;
64297;SDS011;50639;53.270;7.956;2022-11-12T04:17:59;10.80;;;5.32;;
64297;SDS011;50639;53.270;7.956;2022-11-12T04:21:01;10.48;;;5.80;;
64297;SDS011;50639;53.270;7.956;2022-11-12T04:24:04;12.10;;;5.72;;
64297;SDS011;50639;53.270;7.956;2022-11-12T04:26:48;9.43;;;5.40;;
64297;SDS011;50639;53.270;7.956;2022-11-12T04:29:32;9.00;;;5.35;;
64297;SDS011;50639;53.270;7.956;2022-11-12T04:32:35;9.40;;;5.50;;
64297;SDS011;50639;53.270;7.956;2022-11-12T04:35:21;9.27;;;5.43;;
64297;SDS011;50639;53.270;7.956;2022-11-12T04:38:05;8.23;;;4.93;;
64297;SDS011;50639;53.270;7.956;2022-11-12T04:40:48;9.57;;;5.93;;
64297;SDS011;50639;53.270;7.956;2022-11-12T04:43:51;10.60;;;5.55;;
64297;SDS011;50639;53.270;7.956;2022-11-12T04:47:02;10.98;;;5.90;;
64297;SDS011;50639;53.270;7.956;2022-11-12T04:49:46;11.57;;;5.60;;
64297;SDS011;50639;53.270;7.956;2022-11-12T04:52:30;9.88;;;5.65;;
64297;SDS011;50639;53.270;7.956;2022-11-12T04:55:14;11.20;;;6.20;;
64297;SDS011;50639;53.270;7.956;2022-11-12T04:57:57;11.70;;;5.90;;
64297;SDS011;50639;53.270;7.956;2022-11-12T05:00:42;9.45;;;5.82;;
64297;SDS011;50639;53.270;7.956;2022-11-12T05:03:25;9.77;;;5.10;;
64297;SDS011;50639;53.270;7.956;2022-11-12T05:06:09;10.75;;;5.88;;
64297;SDS011;50639;53.270;7.956;2022-11-12T05:09:20;9.90;;;6.03;;
64297;SDS011;50639;53.270;7.956;2022-11-12T05:12:04;10.07;;;5.93;;
64297;SDS011;50639;53.270;7.956;2022-11-12T05:14:48;11.90;;;6.38;;
64297;SDS011;50639;53.270;7.956;2022-11-12T05:17:32;10.77;;;6.28;;
64297;SDS011;50639;53.270;7.956;2022-11-12T05:20:16;11.77;;;6.35;;
64297;SDS011;50639;53.270;7.956;2022-11-12T05:23:00;12.13;;;6.35;;
64297;SDS011;50639;53.270;7.956;2022-11-12T05:25:44;11.82;;;6.88;;
64297;SDS011;50639;53.270;7.956;2022-11-12T05:28:29;8.80;;;5.80;;
64297;SDS011;50639;53.270;7.956;2022-11-12T05:31:13;13.88;;;6.85;;
64297;SDS011;50639;53.270;7.956;2022-11-12T05:33:57;10.80;;;6.28;;
64297;SDS011;50639;53.270;7.956;2022-11-12T05:36:40;10.32;;;5.80;;
64297;SDS011;50639;53.270;7.956;2022-11-12T05:39:24;51.53;;;27.98;;
64297;SDS011;50639;53.270;7.956;2022-11-12T05:42:09;27.88;;;16.55;;
64297;SDS011;50639;53.270;7.956;2022-11-12T05:44:53;22.00;;;11.57;;
64297;SDS011;50639;53.270;7.956;2022-11-12T05:47:37;11.40;;;7.65;;
64297;SDS011;50639;53.270;7.956;2022-11-12T05:50:21;15.35;;;8.35;;
64297;SDS011;50639;53.270;7.956;2022-11-12T05:53:05;11.73;;;6.85;;
64297;SDS011;50639;53.270;7.956;2022-11-12T05:55:49;11.45;;;6.43;;
64297;SDS011;50639;53.270;7.956;2022-11-12T05:58:34;11.55;;;6.28;;
64297;SDS011;50639;53.270;7.956;2022-11-12T06:01:18;14.13;;;6.63;;
64297;SDS011;50639;53.270;7.956;2022-11-12T06:04:02;9.07;;;5.28;;
64297;SDS011;50639;53.270;7.956;2022-11-12T06:06:46;12.45;;;6.13;;
64297;SDS011;50639;53.270;7.956;2022-11-12T06:09:29;11.10;;;5.93;;
64297;SDS011;50639;53.270;7.956;2022-11-12T06:12:14;11.98;;;6.55;;
64297;SDS011;50639;53.270;7.956;2022-11-12T06:14:58;13.07;;;9.25;;
64297;SDS011;50639;53.270;7.956;2022-11-12T06:17:42;14.65;;;8.68;;
64297;SDS011;50639;53.270;7.956;2022-11-12T06:20:26;11.40;;;7.30;;
64297;SDS011;50639;53.270;7.956;2022-11-12T06:23:10;12.05;;;7.18;;
64297;SDS011;50639;53.270;7.956;2022-11-12T06:25:54;13.68;;;6.85;;
64297;SDS011;50639;53.270;7.956;2022-11-12T06:28:39;12.73;;;7.07;;
64297;SDS011;50639;53.270;7.956;2022-11-12T06:31:23;13.48;;;6.57;;
64297;SDS011;50639;53.270;7.956;2022-11-12T06:34:07;12.07;;;7.50;;
64297;SDS011;50639;53.270;7.956;2022-11-12T06:36:50;14.88;;;7.80;;
64297;SDS011;50639;53.270;7.956;2022-11-12T06:39:35;12.25;;;7.90;;
64297;SDS011;50639;53.270;7.956;2022-11-12T06:42:19;10.15;;;6.82;;
64297;SDS011;50639;53.270;7.956;2022-11-12T06:45:02;15.05;;;8.20;;
64297;SDS011;50639;53.270;7.956;2022-11-12T06:47:47;26.55;;;16.80;;
64297;SDS011;50639;53.270;7.956;2022-11-12T06:50:31;18.23;;;13.18;;
64297;SDS011;50639;53.270;7.956;2022-11-12T06:53:15;16.20;;;10.20;;
64297;SDS011;50639;53.270;7.956;2022-11-12T06:56:00;12.45;;;8.35;;
64297;SDS011;50639;53.270;7.956;2022-11-12T06:58:43;18.23;;;8.57;;
64297;SDS011;50639;53.270;7.956;2022-11-12T07:01:28;12.65;;;7.90;;
64297;SDS011;50639;53.270;7.956;2022-11-12T07:04:12;14.88;;;7.90;;
64297;SDS011;50639;53.270;7.956;2022-11-12T07:06:56;14.02;;;7.45;;
64297;SDS011;50639;53.270;7.956;2022-11-12T07:09:40;12.65;;;7.03;;
64297;SDS011;50639;53.270;7.956;2022-11-12T07:12:24;15.20;;;7.60;;
64297;SDS011;50639;53.270;7.956;2022-11-12T07:15:08;13.55;;;7.88;;
64297;SDS011;50639;53.270;7.956;2022-11-12T07:17:52;13.18;;;7.57;;
64297;SDS011;50639;53.270;7.956;2022-11-12T07:20:36;16.98;;;7.80;;
64297;SDS011;50639;53.270;7.956;2022-11-12T07:23:20;13.93;;;7.47;;
64297;SDS011;50639;53.270;7.956;2022-11-12T07:26:11;13.70;;;7.63;;
64297;SDS011;50639;53.270;7.956;2022-11-12T07:28:55;11.98;;;7.30;;
64297;SDS011;50639;53.270;7.956;2022-11-12T07:31:39;80.13;;;44.15;;
64297;SDS011;50639;53.270;7.956;2022-11-12T07:34:23;51.13;;;28.08;;
64297;SDS011;50639;53.270;7.956;2022-11-12T07:37:07;19.92;;;11.77;;
64297;SDS011;50639;53.270;7.956;2022-11-12T07:39:51;21.00;;;10.88;;
64297;SDS011;50639;53.270;7.956;2022-11-12T07:42:35;18.33;;;10.27;;
64297;SDS011;50639;53.270;7.956;2022-11-12T07:45:19;13.27;;;7.65;;
64297;SDS011;50639;53.270;7.956;2022-11-12T07:48:03;14.70;;;7.53;;
64297;SDS011;50639;53.270;7.956;2022-11-12T07:50:47;18.00;;;8.40;;
64297;SDS011;50639;53.270;7.956;2022-11-12T07:53:31;11.73;;;7.72;;
64297;SDS011;50639;53.270;7.956;2022-11-12T07:56:16;11.90;;;6.90;;
64297;SDS011;50639;53.270;7.956;2022-11-12T07:59:00;10.32;;;6.60;;
64297;SDS011;50639;53.270;7.956;2022-11-12T08:01:44;14.63;;;9.18;;
64297;SDS011;50639;53.270;7.956;2022-11-12T08:04:28;20.00;;;9.40;;
64297;SDS011;50639;53.270;7.956;2022-11-12T08:07:12;14.27;;;7.57;;
64297;SDS011;50639;53.270;7.956;2022-11-12T08:09:56;10.55;;;7.20;;
64297;SDS011;50639;53.270;7.956;2022-11-12T08:12:41;14.70;;;6.93;;
64297;SDS011;50639;53.270;7.956;2022-11-12T08:15:25;13.75;;;7.82;;
64297;SDS011;50639;53.270;7.956;2022-11-12T08:18:09;17.00;;;8.20;;
64297;SDS011;50639;53.270;7.956;2022-11-12T08:21:00;14.32;;;8.43;;
64297;SDS011;50639;53.270;7.956;2022-11-12T08:23:44;13.05;;;9.10;;
64297;SDS011;50639;53.270;7.956;2022-11-12T08:26:28;17.23;;;10.27;;
64297;SDS011;50639;53.270;7.956;2022-11-12T08:29:13;19.67;;;9.38;;
64297;SDS011;50639;53.270;7.956;2022-11-12T08:31:57;14.20;;;8.73;;
64297;SDS011;50639;53.270;7.956;2022-11-12T08:34:41;20.55;;;10.85;;
64297;SDS011;50639;53.270;7.956;2022-11-12T08:37:26;17.80;;;10.95;;
64297;SDS011;50639;53.270;7.956;2022-11-12T08:40:10;15.82;;;10.05;;
64297;SDS011;50639;53.270;7.956;2022-11-12T08:42:58;19.73;;;11.43;;
64297;SDS011;50639;53.270;7.956;2022-11-12T08:45:43;19.13;;;12.05;;
64297;SDS011;50639;53.270;7.956;2022-11-12T08:48:27;19.33;;;12.05;;
64297;SDS011;50639;53.270;7.956;2022-11-12T08:51:11;21.05;;;13.45;;
64297;SDS011;50639;53.270;7.956;2022-11-12T08:53:55;17.58;;;11.80;;
64297;SDS011;50639;53.270;7.956;2022-11-12T08:56:39;17.10;;;11.43;;
64297;SDS011;50639;53.270;7.956;2022-11-12T08:59:23;20.30;;;12.23;;
64297;SDS011;50639;53.270;7.956;2022-11-12T09:02:11;19.80;;;14.23;;
64297;SDS011;50639;53.270;7.956;2022-11-12T09:04:55;21.80;;;13.23;;
64297;SDS011;50639;53.270;7.956;2022-11-12T09:07:39;21.83;;;13.30;;
64297;SDS011;50639;53.270;7.956;2022-11-12T09:10:24;22.67;;;14.50;;
64297;SDS011;50639;53.270;7.956;2022-11-12T09:13:08;19.23;;;13.68;;
64297;SDS011;50639;53.270;7.956;2022-11-12T09:15:51;20.83;;;13.05;;
64297;SDS011;50639;53.270;7.956;2022-11-12T09:18:36;23.60;;;14.40;;
64297;SDS011;50639;53.270;7.956;2022-11-12T09:21:19;18.65;;;13.93;;
64297;SDS011;50639;53.270;7.956;2022-11-12T09:24:07;20.13;;;14.75;;
64297;SDS011;50639;53.270;7.956;2022-11-12T09:26:53;24.67;;;14.60;;
64297;SDS011;50639;53.270;7.956;2022-11-12T09:29:38;23.33;;;15.00;;
64297;SDS011;50639;53.270;7.956;2022-11-12T09:32:22;23.73;;;14.57;;
64297;SDS011;50639;53.270;7.956;2022-11-12T09:35:06;26.63;;;15.65;;
64297;SDS011;50639;53.270;7.956;2022-11-12T09:37:50;22.35;;;14.48;;
64297;SDS011;50639;53.270;7.956;2022-11-12T09:43:31;20.77;;;14.88;;
64297;SDS011;50639;53.270;7.956;2022-11-12T09:46:27;28.42;;;15.88;;
64297;SDS011;50639;53.270;7.956;2022-11-12T09:49:18;21.98;;;14.93;;
64297;SDS011;50639;53.270;7.956;2022-11-12T09:52:05;26.00;;;15.30;;
64297;SDS011;50639;53.270;7.956;2022-11-12T09:55:06;24.80;;;14.55;;
64297;SDS011;50639;53.270;7.956;2022-11-12T09:57:52;22.17;;;13.88;;
64297;SDS011;50639;53.270;7.956;2022-11-12T10:00:36;18.35;;;13.82;;
64297;SDS011;50639;53.270;7.956;2022-11-12T10:09:08;21.38;;;13.40;;
64297;SDS011;50639;53.270;7.956;2022-11-12T10:11:57;21.10;;;14.75;;
64297;SDS011;50639;53.270;7.956;2022-11-12T10:18:28;20.05;;;13.23;;
64297;SDS011;50639;53.270;7.956;2022-11-12T10:24:10;19.80;;;13.47;;
64297;SDS011;50639;53.270;7.956;2022-11-12T10:26:55;20.73;;;13.77;;
64297;SDS011;50639;53.270;7.956;2022-11-12T10:32:43;18.75;;;13.15;;
64297;SDS011;50639;53.270;7.956;2022-11-12T10:35:28;20.63;;;12.70;;
64297;SDS011;50639;53.270;7.956;2022-11-12T10:38:14;20.10;;;13.02;;
64297;SDS011;50639;53.270;7.956;2022-11-12T10:41:05;32.42;;;21.40;;
64297;SDS011;50639;53.270;7.956;2022-11-12T10:44:01;21.40;;;13.52;;
64297;SDS011;50639;53.270;7.956;2022-11-12T10:46:45;18.45;;;12.57;;
64297;SDS011;50639;53.270;7.956;2022-11-12T10:49:29;18.88;;;12.38;;
64297;SDS011;50639;53.270;7.956;2022-11-12T10:52:20;21.00;;;15.40;;
64297;SDS011;50639;53.270;7.956;2022-11-12T10:55:27;18.85;;;13.25;;
64297;SDS011;50639;53.270;7.956;2022-11-12T11:01:00;19.08;;;11.93;;
64297;SDS011;50639;53.270;7.956;2022-11-12T11:03:53;21.67;;;13.02;;
64297;SDS011;50639;53.270;7.956;2022-11-12T11:06:37;18.83;;;13.65;;
64297;SDS011;50639;53.270;7.956;2022-11-12T11:09:22;19.63;;;13.73;;
64297;SDS011;50639;53.270;7.956;2022-11-12T11:12:21;24.75;;;12.85;;
64297;SDS011;50639;53.270;7.956;2022-11-12T11:17:55;19.27;;;12.38;;
64297;SDS011;50639;53.270;7.956;2022-11-12T11:20:43;19.15;;;11.77;;
64297;SDS011;50639;53.270;7.956;2022-11-12T11:23:38;22.25;;;13.70;;
64297;SDS011;50639;53.270;7.956;2022-11-12T11:43:47;18.75;;;11.65;;
64297;SDS011;50639;53.270;7.956;2022-11-12T11:53:05;14.93;;;10.77;;
64297;SDS011;50639;53.270;7.956;2022-11-12T12:01:19;14.00;;;9.60;;
64297;SDS011;50639;53.270;7.956;2022-11-12T12:07:03;15.90;;;9.40;;
64297;SDS011;50639;53.270;7.956;2022-11-12T12:15:34;20.13;;;9.32;;
64297;SDS011;50639;53.270;7.956;2022-11-12T12:21:13;17.00;;;9.10;;
64297;SDS011;50639;53.270;7.956;2022-11-12T12:24:05;17.27;;;10.30;;
64297;SDS011;50639;53.270;7.956;2022-11-12T12:27:02;16.10;;;10.00;;
64297;SDS011;50639;53.270;7.956;2022-11-12T12:29:51;15.27;;;10.13;;
64297;SDS011;50639;53.270;7.956;2022-11-12T12:32:39;20.92;;;10.63;;
64297;SDS011;50639;53.270;7.956;2022-11-12T12:35:49;16.60;;;10.02;;
64297;SDS011;50639;53.270;7.956;2022-11-12T12:44:10;16.77;;;9.70;;
64297;SDS011;50639;53.270;7.956;2022-11-12T12:46:55;15.57;;;9.60;;
64297;SDS011;50639;53.270;7.956;2022-11-12T12:49:40;14.77;;;10.15;;
64297;SDS011;50639;53.270;7.956;2022-11-12T12:52:24;16.55;;;11.10;;
64297;SDS011;50639;53.270;7.956;2022-11-12T12:55:31;18.30;;;9.73;;
64297;SDS011;50639;53.270;7.956;2022-11-12T12:58:24;17.17;;;10.40;;
64297;SDS011;50639;53.270;7.956;2022-11-12T13:04:08;17.75;;;10.13;;
64297;SDS011;50639;53.270;7.956;2022-11-12T13:06:52;14.93;;;9.98;;
64297;SDS011;50639;53.270;7.956;2022-11-12T13:09:36;18.75;;;11.02;;
64297;SDS011;50639;53.270;7.956;2022-11-12T13:12:21;15.65;;;10.20;;
64297;SDS011;50639;53.270;7.956;2022-11-12T13:15:39;15.60;;;9.73;;
64297;SDS011;50639;53.270;7.956;2022-11-12T13:21:20;13.73;;;9.38;;
64297;SDS011;50639;53.270;7.956;2022-11-12T13:24:07;16.92;;;10.02;;
64297;SDS011;50639;53.270;7.956;2022-11-12T13:26:54;14.52;;;9.80;;
64297;SDS011;50639;53.270;7.956;2022-11-12T13:29:39;19.42;;;11.60;;
64297;SDS011;50639;53.270;7.956;2022-11-12T13:46:31;15.60;;;8.82;;
64297;SDS011;50639;53.270;7.956;2022-11-12T13:49:15;18.05;;;9.70;;
64297;SDS011;50639;53.270;7.956;2022-11-12T13:52:00;15.57;;;9.27;;
64297;SDS011;50639;53.270;7.956;2022-11-12T13:54:44;16.77;;;9.10;;
64297;SDS011;50639;53.270;7.956;2022-11-12T13:57:29;16.38;;;8.93;;
64297;SDS011;50639;53.270;7.956;2022-11-12T14:03:01;19.80;;;10.27;;
64297;SDS011;50639;53.270;7.956;2022-11-12T14:05:46;13.30;;;9.30;;
64297;SDS011;50639;53.270;7.956;2022-11-12T14:11:50;13.73;;;8.02;;
64297;SDS011;50639;53.270;7.956;2022-11-12T14:14:47;16.95;;;9.40;;
64297;SDS011;50639;53.270;7.956;2022-11-12T14:17:38;14.40;;;8.55;;
64297;SDS011;50639;53.270;7.956;2022-11-12T14:20:32;16.10;;;10.55;;
64297;SDS011;50639;53.270;7.956;2022-11-12T14:23:19;13.90;;;8.82;;
64297;SDS011;50639;53.270;7.956;2022-11-12T14:26:05;14.75;;;8.45;;
64297;SDS011;50639;53.270;7.956;2022-11-12T14:28:54;14.48;;;8.82;;
64297;SDS011;50639;53.270;7.956;2022-11-12T14:31:38;16.10;;;9.43;;
64297;SDS011;50639;53.270;7.956;2022-11-12T14:34:40;14.70;;;8.45;;
64297;SDS011;50639;53.270;7.956;2022-11-12T14:37:34;17.65;;;9.52;;
64297;SDS011;50639;53.270;7.956;2022-11-12T14:40:19;13.75;;;8.70;;
64297;SDS011;50639;53.270;7.956;2022-11-12T14:43:03;12.77;;;8.35;;
64297;SDS011;50639;53.270;7.956;2022-11-12T14:45:48;53.55;;;36.22;;
64297;SDS011;50639;53.270;7.956;2022-11-12T14:48:34;31.80;;;19.13;;
64297;SDS011;50639;53.270;7.956;2022-11-12T14:51:19;20.67;;;11.85;;
64297;SDS011;50639;53.270;7.956;2022-11-12T14:54:06;15.77;;;10.05;;
64297;SDS011;50639;53.270;7.956;2022-11-12T14:56:52;15.10;;;9.02;;
64297;SDS011;50639;53.270;7.956;2022-11-12T14:59:36;11.93;;;7.82;;
64297;SDS011;50639;53.270;7.956;2022-11-12T15:02:25;16.85;;;8.95;;
64297;SDS011;50639;53.270;7.956;2022-11-12T15:05:12;14.45;;;9.75;;
64297;SDS011;50639;53.270;7.956;2022-11-12T15:08:04;19.85;;;9.38;;
64297;SDS011;50639;53.270;7.956;2022-11-12T15:10:48;19.85;;;10.40;;
64297;SDS011;50639;53.270;7.956;2022-11-12T15:13:36;16.85;;;9.13;;
64297;SDS011;50639;53.270;7.956;2022-11-12T15:16:25;14.25;;;8.55;;
64297;SDS011;50639;53.270;7.956;2022-11-12T15:19:17;17.27;;;9.20;;
64297;SDS011;50639;53.270;7.956;2022-11-12T15:22:03;13.73;;;8.38;;
64297;SDS011;50639;53.270;7.956;2022-11-12T15:24:47;13.40;;;8.82;;
64297;SDS011;50639;53.270;7.956;2022-11-12T15:27:39;13.45;;;8.40;;
64297;SDS011;50639;53.270;7.956;2022-11-12T15:30:25;16.17;;;8.10;;
64297;SDS011;50639;53.270;7.956;2022-11-12T15:35:59;15.95;;;8.30;;
64297;SDS011;50639;53.270;7.956;2022-11-12T15:38:47;15.93;;;8.20;;
64297;SDS011;50639;53.270;7.956;2022-11-12T15:41:32;12.77;;;8.30;;
64297;SDS011;50639;53.270;7.956;2022-11-12T15:44:16;15.80;;;9.00;;
64297;SDS011;50639;53.270;7.956;2022-11-12T15:47:00;18.08;;;8.93;;
64297;SDS011;50639;53.270;7.956;2022-11-12T15:49:52;15.00;;;8.68;;
64297;SDS011;50639;53.270;7.956;2022-11-12T15:52:36;15.10;;;9.02;;
64297;SDS011;50639;53.270;7.956;2022-11-12T15:55:20;17.08;;;8.30;;
64297;SDS011;50639;53.270;7.956;2022-11-12T15:58:05;14.18;;;9.20;;
64297;SDS011;50639;53.270;7.956;2022-11-12T16:00:49;14.93;;;9.02;;
64297;SDS011;50639;53.270;7.956;2022-11-12T16:03:35;16.27;;;8.65;;
64297;SDS011;50639;53.270;7.956;2022-11-12T16:06:20;16.13;;;7.80;;
64297;SDS011;50639;53.270;7.956;2022-11-12T16:09:03;16.00;;;8.80;;
64297;SDS011;50639;53.270;7.956;2022-11-12T16:11:47;14.55;;;9.20;;
64297;SDS011;50639;53.270;7.956;2022-11-12T16:14:33;18.27;;;12.15;;
64297;SDS011;50639;53.270;7.956;2022-11-12T16:17:17;21.45;;;15.23;;
64297;SDS011;50639;53.270;7.956;2022-11-12T16:20:04;23.58;;;14.27;;
64297;SDS011;50639;53.270;7.956;2022-11-12T16:22:49;14.40;;;8.75;;
64297;SDS011;50639;53.270;7.956;2022-11-12T16:25:33;15.48;;;9.73;;
64297;SDS011;50639;53.270;7.956;2022-11-12T16:28:17;15.40;;;10.27;;
64297;SDS011;50639;53.270;7.956;2022-11-12T16:31:02;13.93;;;9.27;;
64297;SDS011;50639;53.270;7.956;2022-11-12T16:33:46;20.13;;;11.07;;
64297;SDS011;50639;53.270;7.956;2022-11-12T16:36:30;19.50;;;11.65;;
64297;SDS011;50639;53.270;7.956;2022-11-12T16:39:14;20.20;;;13.18;;
64297;SDS011;50639;53.270;7.956;2022-11-12T16:41:58;17.52;;;9.65;;
64297;SDS011;50639;53.270;7.956;2022-11-12T16:44:43;15.23;;;10.02;;
64297;SDS011;50639;53.270;7.956;2022-11-12T16:47:27;20.48;;;11.85;;
64297;SDS011;50639;53.270;7.956;2022-11-12T16:50:11;20.40;;;12.63;;
64297;SDS011;50639;53.270;7.956;2022-11-12T16:52:56;20.48;;;11.13;;
64297;SDS011;50639;53.270;7.956;2022-11-12T16:55:40;16.20;;;10.57;;
64297;SDS011;50639;53.270;7.956;2022-11-12T16:58:24;15.63;;;9.98;;
64297;SDS011;50639;53.270;7.956;2022-11-12T17:01:27;16.35;;;10.38;;
64297;SDS011;50639;53.270;7.956;2022-11-12T17:04:11;16.77;;;9.70;;
64297;SDS011;50639;53.270;7.956;2022-11-12T17:06:55;14.63;;;9.95;;
64297;SDS011;50639;53.270;7.956;2022-11-12T17:09:40;17.42;;;9.68;;
64297;SDS011;50639;53.270;7.956;2022-11-12T17:12:24;16.55;;;9.90;;
64297;SDS011;50639;53.270;7.956;2022-11-12T17:15:08;15.32;;;10.43;;
64297;SDS011;50639;53.270;7.956;2022-11-12T17:17:52;16.92;;;10.15;;
64297;SDS011;50639;53.270;7.956;2022-11-12T17:20:36;20.25;;;13.68;;
64297;SDS011;50639;53.270;7.956;2022-11-12T17:23:20;20.80;;;14.27;;
64297;SDS011;50639;53.270;7.956;2022-11-12T17:26:06;19.58;;;12.90;;
64297;SDS011;50639;53.270;7.956;2022-11-12T17:28:53;20.08;;;13.05;;
64297;SDS011;50639;53.270;7.956;2022-11-12T17:31:37;22.80;;;15.60;;
64297;SDS011;50639;53.270;7.956;2022-11-12T17:34:21;23.60;;;14.18;;
64297;SDS011;50639;53.270;7.956;2022-11-12T17:37:05;15.65;;;11.27;;
64297;SDS011;50639;53.270;7.956;2022-11-12T17:39:49;20.48;;;13.77;;
64297;SDS011;50639;53.270;7.956;2022-11-12T17:42:33;21.90;;;13.55;;
64297;SDS011;50639;53.270;7.956;2022-11-12T17:45:17;17.33;;;10.65;;
64297;SDS011;50639;53.270;7.956;2022-11-12T17:48:01;18.88;;;11.02;;
64297;SDS011;50639;53.270;7.956;2022-11-12T17:50:46;15.30;;;10.05;;
64297;SDS011;50639;53.270;7.956;2022-11-12T17:53:30;19.05;;;10.98;;
64297;SDS011;50639;53.270;7.956;2022-11-12T17:56:15;16.35;;;9.52;;
64297;SDS011;50639;53.270;7.956;2022-11-12T17:59:02;20.60;;;9.95;;
64297;SDS011;50639;53.270;7.956;2022-11-12T18:01:47;15.25;;;9.07;;
64297;SDS011;50639;53.270;7.956;2022-11-12T18:04:31;15.32;;;9.15;;